Time;durP1;ratioP1;P1;durP2;ratioP2;P2;SDS_P1;SDS_P2;PMS_P1;PMS_P2;Temp;Humidity;BMP_temperature;BMP_pressure;BME280_temperature;BME280_humidity;BME280_pressure;Samples;Min_cycle;Max_cycle;Signal;HPM_P1;HPM_P2
2022/03/29 00:01:34;;;;;;;;;;;6.70;85.70;;;;;;5106026;28;20250;-80
2022/03/29 00:04:00;;;;;;;;;;;6.70;86.20;;;;;;5106047;28;19908;-80
2022/03/29 00:06:26;;;;;;;;;;;6.60;85.90;;;;;;5105290;28;19919;-79
2022/03/29 00:08:52;;;;;;;;;;;6.60;86.10;;;;;;5105026;28;19916;-80
2022/03/29 00:11:18;;;;;;;;;;;6.60;86.40;;;;;;5106853;28;19975;-78
2022/03/29 00:13:44;;;;;;;;;;;6.60;86.10;;;;;;5106554;28;19953;-79
2022/03/29 00:16:10;;;;;;;;;;;6.60;86.40;;;;;;5107300;28;19908;-79
2022/03/29 00:18:35;;;;;;;;;;;6.50;86.90;;;;;;5106860;28;19911;-79
2022/03/29 00:21:01;;;;;;;;;;;6.30;87.00;;;;;;5111786;28;20475;-80
2022/03/29 00:23:27;;;;;;;;;;;6.30;87.20;;;;;;5114659;28;20139;-80
2022/03/29 00:25:53;;;;;;;;;;;6.30;87.60;;;;;;5115088;28;19991;-80
2022/03/29 00:28:18;;;;;;;;;;;6.30;87.50;;;;;;5115897;28;20425;-80
2022/03/29 00:30:44;;;;;;;;;;;6.30;87.30;;;;;;5114386;28;20318;-80
2022/03/29 00:33:09;;;;;;;;;;;6.30;87.30;;;;;;5113375;28;19923;-79
2022/03/29 00:35:35;;;;;;;;;;;6.30;87.50;;;;;;5115369;28;19919;-80
2022/03/29 00:38:00;;;;;;;;;;;6.20;87.70;;;;;;5113445;28;19916;-80
2022/03/29 00:40:27;;;;;;;;;;;6.20;88.00;;;;;;5113911;28;19998;-80
2022/03/29 00:42:52;;;;;;;;;;;6.20;88.50;;;;;;5095952;28;19943;-79
2022/03/29 00:45:18;;;;;;;;;;;6.20;87.60;;;;;;5114014;28;19908;-80
2022/03/29 00:47:44;;;;;;;;;;;6.30;87.60;;;;;;5110432;28;19963;-80
2022/03/29 00:50:10;;;;;;;;;;;6.20;87.50;;;;;;5104615;28;20342;-80
2022/03/29 00:52:36;;;;;;;;;;;6.20;87.80;;;;;;5106683;28;19908;-79
2022/03/29 00:55:02;;;;;;;;;;;6.20;87.90;;;;;;5105146;28;19915;-80
2022/03/29 00:57:29;;;;;;;;;;;6.10;87.80;;;;;;5105525;28;19907;-80
2022/03/29 00:59:55;;;;;;;;;;;6.10;88.00;;;;;;5071167;28;20010;-79
2022/03/29 01:02:21;;;;;;;;;;;6.10;88.00;;;;;;5104956;28;19915;-80
2022/03/29 01:04:47;;;;;;;;;;;6.10;88.10;;;;;;5104796;28;19912;-80
2022/03/29 01:07:14;;;;;;;;;;;6.10;88.30;;;;;;5105538;28;20442;-80
2022/03/29 01:09:40;;;;;;;;;;;6.00;88.00;;;;;;5107732;28;20574;-79
2022/03/29 01:12:05;;;;;;;;;;;6.00;88.20;;;;;;5107256;28;19937;-79
2022/03/29 01:14:32;;;;;;;;;;;5.90;89.00;;;;;;5089079;28;20377;-79
2022/03/29 01:19:43;;;;;;;;;;;5.90;88.70;;;;;;5107149;28;19915;-80
2022/03/29 01:22:10;;;;;;;;;;;6.00;88.50;;;;;;5106766;28;19908;-80
2022/03/29 01:24:39;;;;;;;;;;;5.90;88.20;;;;;;5088724;28;20104;-79
2022/03/29 01:27:05;;;;;;;;;;;5.80;88.70;;;;;;5108119;28;19927;-80
2022/03/29 01:29:34;;;;;;;;;;;5.80;89.00;;;;;;5108031;28;20219;-79
2022/03/29 01:32:04;;;;;;;;;;;5.70;88.90;;;;;;5091681;28;19912;-79
2022/03/29 01:34:31;;;;;;;;;;;5.70;89.30;;;;;;5110768;28;19908;-80
2022/03/29 01:36:57;;;;;;;;;;;5.70;89.20;;;;;;5109927;28;19907;-80
2022/03/29 01:39:22;;;;;;;;;;;5.60;89.60;;;;;;5110035;28;19934;-79
2022/03/29 01:41:48;;;;;;;;;;;5.60;89.90;;;;;;5095720;28;19907;-80
2022/03/29 01:44:16;;;;;;;;;;;5.50;90.10;;;;;;5112844;28;19907;-80
2022/03/29 01:46:41;;;;;;;;;;;5.50;90.20;;;;;;5088984;28;19916;-79
2022/03/29 01:49:08;;;;;;;;;;;5.50;90.30;;;;;;5106330;28;20098;-79
2022/03/29 01:51:34;;;;;;;;;;;5.50;90.20;;;;;;5089214;28;20443;-79
2022/03/29 01:54:00;;;;;;;;;;;5.40;90.40;;;;;;5107161;28;19908;-79
2022/03/29 01:56:26;;;;;;;;;;;5.40;90.50;;;;;;5107283;28;20077;-80
2022/03/29 01:58:52;;;;;;;;;;;5.40;90.50;;;;;;5105328;28;19908;-80
2022/03/29 02:01:19;;;;;;;;;;;5.40;90.60;;;;;;5105938;28;19920;-80
2022/03/29 02:03:44;;;;;;;;;;;5.30;90.50;;;;;;5107630;28;19955;-79
2022/03/29 02:06:10;;;;;;;;;;;5.20;90.60;;;;;;5110295;28;20345;-79
2022/03/29 02:08:35;;;;;;;;;;;5.20;90.60;;;;;;5110144;28;19919;-79
2022/03/29 02:11:01;;;;;;;;;;;5.20;90.70;;;;;;5110999;28;20488;-79
2022/03/29 02:13:27;;;;;;;;;;;5.20;90.80;;;;;;5109479;28;20144;-79
2022/03/29 02:15:52;;;;;;;;;;;5.20;90.70;;;;;;5106249;28;20109;-79
2022/03/29 02:18:18;;;;;;;;;;;5.20;90.60;;;;;;5105698;28;19927;-79
2022/03/29 02:20:44;;;;;;;;;;;5.10;90.60;;;;;;5105944;28;20025;-79
2022/03/29 02:23:14;;;;;;;;;;;5.10;90.70;;;;;;5103957;28;19951;-80
2022/03/29 02:25:40;;;;;;;;;;;5.20;90.70;;;;;;5108610;28;19934;-80
2022/03/29 02:28:05;;;;;;;;;;;5.20;90.70;;;;;;5111897;28;20219;-80
2022/03/29 02:30:32;;;;;;;;;;;5.10;90.80;;;;;;5113438;28;19915;-80
2022/03/29 02:32:58;;;;;;;;;;;5.10;90.90;;;;;;5094368;28;20620;-80
2022/03/29 02:35:24;;;;;;;;;;;5.00;90.90;;;;;;5110390;28;19951;-79
2022/03/29 02:37:49;;;;;;;;;;;5.30;91.20;;;;;;5086367;28;19908;-79
2022/03/29 02:40:15;;;;;;;;;;;5.00;90.80;;;;;;5101826;28;19915;-80
2022/03/29 02:42:44;;;;;;;;;;;5.10;90.80;;;;;;5108689;28;19983;-79
2022/03/29 02:45:16;;;;;;;;;;;5.00;90.80;;;;;;5109929;28;19908;-80
2022/03/29 02:47:52;;;;;;;;;;;5.10;90.70;;;;;;5111548;28;19911;-80
2022/03/29 02:50:18;;;;;;;;;;;5.10;90.70;;;;;;5113944;28;19920;-79
2022/03/29 02:52:45;;;;;;;;;;;5.00;90.80;;;;;;5115595;28;19907;-79
2022/03/29 02:55:11;;;;;;;;;;;5.00;90.90;;;;;;5113466;28;20202;-79
2022/03/29 02:57:36;;;;;;;;;;;5.10;91.00;;;;;;5092577;28;20374;-81
2022/03/29 03:00:04;;;;;;;;;;;4.90;91.30;;;;;;5107433;28;19920;-79
2022/03/29 03:02:32;;;;;;;;;;;4.90;91.20;;;;;;5106252;28;19958;-80
2022/03/29 03:04:59;;;;;;;;;;;4.90;91.30;;;;;;5108513;28;19939;-79
2022/03/29 03:07:24;;;;;;;;;;;4.90;91.30;;;;;;5082751;28;19964;-80
2022/03/29 03:09:50;;;;;;;;;;;4.80;91.30;;;;;;5101800;28;19911;-80
2022/03/29 03:12:15;;;;;;;;;;;4.70;91.50;;;;;;5101754;28;20092;-80
2022/03/29 03:14:41;;;;;;;;;;;4.60;91.60;;;;;;5102326;28;19908;-79
2022/03/29 03:17:06;;;;;;;;;;;4.60;91.60;;;;;;5101685;28;19912;-79
2022/03/29 03:19:32;;;;;;;;;;;4.60;91.80;;;;;;5101846;28;20258;-79
2022/03/29 03:21:58;;;;;;;;;;;4.60;91.80;;;;;;5100643;28;19908;-80
2022/03/29 03:24:23;;;;;;;;;;;4.50;91.90;;;;;;5100967;28;19939;-79
2022/03/29 03:26:49;;;;;;;;;;;4.50;91.80;;;;;;5102082;28;20164;-80
2022/03/29 03:29:14;;;;;;;;;;;4.50;92.00;;;;;;5101593;28;20320;-79
2022/03/29 03:31:40;;;;;;;;;;;5.00;92.20;;;;;;5103362;28;19908;-80
2022/03/29 03:34:05;;;;;;;;;;;4.50;92.00;;;;;;5102923;28;19989;-79
2022/03/29 03:36:31;;;;;;;;;;;4.50;91.80;;;;;;5101289;28;19916;-79
2022/03/29 03:38:56;;;;;;;;;;;4.60;91.70;;;;;;5102610;28;19908;-79
2022/03/29 03:41:22;;;;;;;;;;;4.60;91.70;;;;;;5101951;28;19912;-79
2022/03/29 03:43:48;;;;;;;;;;;4.60;91.60;;;;;;5083991;28;20397;-79
2022/03/29 03:46:14;;;;;;;;;;;4.50;91.80;;;;;;5102023;28;20389;-81
2022/03/29 03:48:39;;;;;;;;;;;4.40;91.90;;;;;;5102495;28;20262;-80
2022/03/29 03:51:06;;;;;;;;;;;4.40;92.00;;;;;;5106790;28;20362;-80
2022/03/29 03:53:31;;;;;;;;;;;4.40;92.00;;;;;;5107467;28;19950;-79
2022/03/29 03:55:57;;;;;;;;;;;4.40;92.00;;;;;;5101487;28;19958;-79
2022/03/29 03:58:22;;;;;;;;;;;4.40;92.10;;;;;;5102225;28;19938;-79
2022/03/29 04:00:48;;;;;;;;;;;4.40;92.20;;;;;;5101083;28;19919;-80
2022/03/29 04:03:13;;;;;;;;;;;4.40;92.00;;;;;;5081682;28;19908;-79
2022/03/29 04:05:40;;;;;;;;;;;4.40;92.00;;;;;;5100908;28;19912;-80
2022/03/29 04:08:06;;;;;;;;;;;4.30;92.20;;;;;;5082224;28;19938;-80
2022/03/29 04:10:33;;;;;;;;;;;4.30;92.10;;;;;;5100456;28;19908;-80
2022/03/29 04:13:00;;;;;;;;;;;4.40;92.50;;;;;;5100668;28;19908;-80
2022/03/29 04:15:26;;;;;;;;;;;4.30;92.30;;;;;;5100597;28;19955;-79
2022/03/29 04:17:51;;;;;;;;;;;4.30;92.30;;;;;;5100022;28;19947;-79
2022/03/29 04:20:17;;;;;;;;;;;4.30;92.30;;;;;;5100864;28;20018;-79
2022/03/29 04:22:43;;;;;;;;;;;4.30;92.30;;;;;;5100742;28;20358;-79
2022/03/29 04:25:10;;;;;;;;;;;4.20;92.30;;;;;;5086922;28;19908;-80
2022/03/29 04:27:35;;;;;;;;;;;4.10;92.50;;;;;;5104033;28;19969;-79
2022/03/29 04:30:01;;;;;;;;;;;4.00;93.10;;;;;;5105441;28;20116;-80
2022/03/29 04:32:27;;;;;;;;;;;4.10;92.70;;;;;;5104050;28;19919;-80
2022/03/29 04:34:52;;;;;;;;;;;4.10;92.80;;;;;;5085084;28;20081;-79
2022/03/29 04:37:18;;;;;;;;;;;3.20;92.60;;;;;;5103467;28;20408;-79
2022/03/29 04:39:43;;;;;;;;;;;4.10;92.80;;;;;;5104350;28;19908;-80
2022/03/29 04:42:09;;;;;;;;;;;4.00;92.80;;;;;;5104570;28;20052;-81
2022/03/29 04:44:35;;;;;;;;;;;4.00;92.80;;;;;;5105149;28;19908;-80
2022/03/29 04:47:01;;;;;;;;;;;4.00;92.80;;;;;;5104494;28;19912;-80
2022/03/29 04:49:27;;;;;;;;;;;4.00;92.90;;;;;;5105099;28;19930;-80
2022/03/29 04:51:52;;;;;;;;;;;4.00;92.80;;;;;;5085968;28;19993;-80
2022/03/29 04:54:18;;;;;;;;;;;4.00;92.70;;;;;;5104172;28;19915;-79
2022/03/29 04:56:43;;;;;;;;;;;4.10;92.60;;;;;;5106004;28;19907;-79
2022/03/29 04:59:09;;;;;;;;;;;4.10;92.70;;;;;;5106876;28;19908;-80
2022/03/29 05:01:36;;;;;;;;;;;4.10;92.60;;;;;;5087406;28;19923;-80
2022/03/29 05:04:02;;;;;;;;;;;4.10;92.60;;;;;;5107435;28;19907;-79
2022/03/29 05:06:28;;;;;;;;;;;4.20;92.60;;;;;;5107455;28;19968;-79
2022/03/29 05:08:54;;;;;;;;;;;4.20;92.60;;;;;;5108053;28;20348;-81
2022/03/29 05:11:19;;;;;;;;;;;4.20;92.50;;;;;;5109979;28;19919;-79
2022/03/29 05:13:46;;;;;;;;;;;4.30;92.30;;;;;;5110303;28;19918;-79
2022/03/29 05:16:12;;;;;;;;;;;4.30;92.30;;;;;;5110689;28;19962;-79
2022/03/29 05:18:37;;;;;;;;;;;4.30;92.40;;;;;;5109900;28;19911;-79
2022/03/29 05:21:03;;;;;;;;;;;4.40;92.30;;;;;;5110181;28;19912;-79
2022/03/29 05:23:29;;;;;;;;;;;4.40;92.30;;;;;;5112660;28;19918;-79
2022/03/29 05:25:54;;;;;;;;;;;4.50;92.20;;;;;;5114959;28;19920;-80
2022/03/29 05:28:20;;;;;;;;;;;4.50;92.20;;;;;;5114953;28;19920;-79
2022/03/29 05:30:46;;;;;;;;;;;4.60;92.00;;;;;;5113921;28;19912;-79
2022/03/29 05:33:15;;;;;;;;;;;4.60;91.80;;;;;;5111537;28;20738;-80
2022/03/29 05:35:43;;;;;;;;;;;4.60;91.70;;;;;;5110054;28;19908;-79
2022/03/29 05:38:09;;;;;;;;;;;4.60;91.60;;;;;;5107458;28;19908;-79
2022/03/29 05:40:35;;;;;;;;;;;4.70;91.60;;;;;;5105762;28;20014;-79
2022/03/29 05:43:01;;;;;;;;;;;4.80;91.50;;;;;;5103964;28;20333;-80
2022/03/29 05:45:30;;;;;;;;;;;4.80;91.50;;;;;;5085739;28;19911;-79
2022/03/29 05:50:40;;;;;;;;;;;5.10;91.00;;;;;;5103395;28;20418;-80
2022/03/29 05:53:06;;;;;;;;;;;5.20;90.90;;;;;;5104047;28;20299;-80
2022/03/29 05:55:32;;;;;;;;;;;5.20;90.80;;;;;;5104745;28;20306;-80
2022/03/29 05:57:57;;;;;;;;;;;5.30;90.80;;;;;;5105858;28;20243;-80
2022/03/29 06:00:23;;;;;;;;;;;5.30;90.60;;;;;;5111846;28;19912;-80
2022/03/29 06:02:53;;;;;;;;;;;5.40;90.40;;;;;;5104337;28;20413;-80
2022/03/29 06:05:18;;;;;;;;;;;5.50;90.30;;;;;;5103299;28;19908;-79
2022/03/29 06:07:44;;;;;;;;;;;5.60;90.20;;;;;;5103429;28;19912;-79
2022/03/29 06:10:11;;;;;;;;;;;5.70;90.00;;;;;;5083600;28;19999;-80
2022/03/29 06:12:36;;;;;;;;;;;5.80;89.80;;;;;;5103581;28;19908;-80
2022/03/29 06:15:03;;;;;;;;;;;5.90;89.50;;;;;;5084327;28;19919;-79
2022/03/29 06:17:30;;;;;;;;;;;5.90;89.30;;;;;;5102982;28;19912;-80
2022/03/29 06:19:55;;;;;;;;;;;6.00;88.90;;;;;;5102462;28;19934;-80
2022/03/29 06:22:21;;;;;;;;;;;6.10;88.60;;;;;;5102535;28;20518;-80
2022/03/29 06:24:47;;;;;;;;;;;6.30;88.40;;;;;;5102775;28;19960;-80
2022/03/29 06:27:12;;;;;;;;;;;6.30;88.20;;;;;;5101957;28;20024;-80
2022/03/29 06:29:38;;;;;;;;;;;6.50;87.50;;;;;;5102703;28;19914;-80
2022/03/29 06:32:04;;;;;;;;;;;6.50;86.90;;;;;;5102259;28;19920;-80
2022/03/29 06:34:30;;;;;;;;;;;6.60;86.80;;;;;;5102098;28;19908;-80
2022/03/29 06:36:56;;;;;;;;;;;6.70;86.90;;;;;;5102055;28;19907;-80
2022/03/29 06:39:22;;;;;;;;;;;6.80;86.50;;;;;;5103318;28;20343;-80
2022/03/29 06:41:47;;;;;;;;;;;6.90;86.10;;;;;;5084376;28;19962;-80
2022/03/29 06:44:13;;;;;;;;;;;7.00;85.70;;;;;;5102733;28;19996;-80
2022/03/29 06:46:39;;;;;;;;;;;7.20;85.10;;;;;;5103453;28;19916;-80
2022/03/29 06:49:06;;;;;;;;;;;7.40;84.60;;;;;;5085730;28;19988;-80
2022/03/29 06:51:33;;;;;;;;;;;7.40;84.20;;;;;;5105031;28;20434;-80
2022/03/29 06:53:59;;;;;;;;;;;7.60;83.70;;;;;;5103877;28;19919;-80
2022/03/29 06:56:25;;;;;;;;;;;7.70;83.00;;;;;;5085449;28;19907;-80
2022/03/29 06:58:51;;;;;;;;;;;7.90;82.90;;;;;;5104802;28;19908;-80
2022/03/29 07:01:16;;;;;;;;;;;8.00;82.10;;;;;;5084210;28;19960;-80
2022/03/29 07:03:42;;;;;;;;;;;8.20;81.70;;;;;;5104729;28;19981;-80
2022/03/29 07:06:08;;;;;;;;;;;8.40;80.60;;;;;;5103412;28;19907;-80
2022/03/29 07:08:35;;;;;;;;;;;8.50;80.00;;;;;;5103437;28;19926;-80
2022/03/29 07:11:16;;;;;;;;;;;8.60;79.10;;;;;;5105414;28;19908;-80
2022/03/29 07:13:42;;;;;;;;;;;8.80;79.30;;;;;;5104612;28;20413;-80
2022/03/29 07:16:09;;;;;;;;;;;8.90;77.70;;;;;;5104380;28;19914;-80
2022/03/29 07:18:35;;;;;;;;;;;9.00;75.70;;;;;;5105868;28;19923;-80
2022/03/29 07:21:01;;;;;;;;;;;9.20;75.30;;;;;;5104610;28;20211;-80
2022/03/29 07:23:26;;;;;;;;;;;9.30;75.10;;;;;;5088505;28;20560;-80
2022/03/29 07:25:52;;;;;;;;;;;9.50;73.40;;;;;;5105222;28;19908;-80
2022/03/29 07:28:17;;;;;;;;;;;9.60;72.90;;;;;;5103182;28;20089;-80
2022/03/29 07:30:46;;;;;;;;;;;9.80;71.80;;;;;;5104206;28;19955;-80
2022/03/29 07:33:13;;;;;;;;;;;10.00;70.50;;;;;;5103881;28;20188;-81
2022/03/29 07:35:38;;;;;;;;;;;10.10;70.50;;;;;;5103288;28;20394;-80
2022/03/29 07:38:07;;;;;;;;;;;10.30;69.40;;;;;;5100782;28;19908;-80
2022/03/29 07:40:34;;;;;;;;;;;10.50;67.90;;;;;;5082808;28;19984;-80
2022/03/29 07:43:00;;;;;;;;;;;10.70;67.00;;;;;;5101336;28;20447;-80
2022/03/29 07:45:25;;;;;;;;;;;10.90;65.30;;;;;;5082882;28;19908;-80
2022/03/29 07:47:56;;;;;;;;;;;11.20;66.40;;;;;;5082335;28;19924;-80
2022/03/29 07:50:24;;;;;;;;;;;11.40;66.20;;;;;;5102569;28;20299;-80
2022/03/29 07:52:50;;;;;;;;;;;11.50;62.40;;;;;;5101089;28;20014;-80
2022/03/29 07:55:16;;;;;;;;;;;11.70;62.00;;;;;;5100524;28;20215;-80
2022/03/29 07:57:42;;;;;;;;;;;11.90;60.40;;;;;;5100932;28;19907;-80
2022/03/29 08:02:53;;;;;;;;;;;12.30;60.00;;;;;;5103769;28;20276;-80
2022/03/29 08:05:19;;;;;;;;;;;12.40;58.70;;;;;;5103422;28;20314;-80
2022/03/29 08:07:45;;;;;;;;;;;12.50;57.60;;;;;;5084416;28;19923;-80
2022/03/29 08:10:11;;;;;;;;;;;12.70;57.50;;;;;;5103156;28;19934;-81
2022/03/29 08:12:36;;;;;;;;;;;13.00;56.40;;;;;;5084530;28;19908;-81
2022/03/29 08:15:04;;;;;;;;;;;13.20;54.80;;;;;;5102869;28;19907;-81
2022/03/29 08:17:30;;;;;;;;;;;13.40;54.60;;;;;;5102537;28;20022;-80
2022/03/29 08:19:55;;;;;;;;;;;13.50;54.60;;;;;;5102889;28;20445;-81
2022/03/29 08:22:21;;;;;;;;;;;13.60;53.10;;;;;;5102498;28;20034;-81
2022/03/29 08:24:46;;;;;;;;;;;13.70;53.40;;;;;;5102885;28;20033;-81
2022/03/29 08:27:14;;;;;;;;;;;14.00;51.90;;;;;;5084515;28;19919;-81
2022/03/29 08:29:40;;;;;;;;;;;14.20;50.50;;;;;;5103540;28;19923;-81
2022/03/29 08:32:06;;;;;;;;;;;14.30;50.10;;;;;;5115426;28;20252;-79
2022/03/29 08:34:32;;;;;;;;;;;14.50;49.60;;;;;;5112016;28;19915;-79
2022/03/29 08:36:57;;;;;;;;;;;14.60;49.40;;;;;;5107882;28;20398;-78
2022/03/29 08:39:23;;;;;;;;;;;14.70;48.70;;;;;;5105570;28;19911;-79
2022/03/29 08:42:07;;;;;;;;;;;15.00;47.90;;;;;;5102466;28;20163;-80
2022/03/29 08:44:33;;;;;;;;;;;15.10;47.20;;;;;;5083544;28;19908;-79
2022/03/29 08:46:59;;;;;;;;;;;15.20;47.50;;;;;;5101139;28;19939;-80
2022/03/29 08:49:24;;;;;;;;;;;15.50;47.00;;;;;;5101462;28;19931;-81
2022/03/29 08:51:51;;;;;;;;;;;15.60;45.90;;;;;;5101766;28;20361;-81
2022/03/29 08:54:18;;;;;;;;;;;15.80;45.60;;;;;;5101310;28;20223;-81
2022/03/29 08:56:44;;;;;;;;;;;16.10;44.40;;;;;;5082791;28;20007;-81
2022/03/29 08:59:10;;;;;;;;;;;16.30;44.10;;;;;;5101594;28;20514;-81
2022/03/29 09:01:35;;;;;;;;;;;16.50;43.80;;;;;;5100814;28;19920;-79
2022/03/29 09:04:04;;;;;;;;;;;16.60;42.70;;;;;;5101728;28;19914;-80
2022/03/29 09:06:30;;;;;;;;;;;16.70;41.70;;;;;;5082901;28;20421;-79
2022/03/29 09:08:56;;;;;;;;;;;16.80;41.20;;;;;;5081887;28;19962;-79
2022/03/29 09:11:21;;;;;;;;;;;16.90;41.30;;;;;;5100236;28;20010;-79
2022/03/29 09:14:00;;;;;;;;;;;17.20;41.20;;;;;;5082428;28;19908;-79
2022/03/29 09:16:28;;;;;;;;;;;17.40;40.50;;;;;;5100488;28;19916;-79
2022/03/29 09:18:55;;;;;;;;;;;17.30;39.70;;;;;;5100800;28;19915;-80
2022/03/29 09:21:20;;;;;;;;;;;17.10;40.00;;;;;;5100931;28;20011;-79
2022/03/29 09:24:05;;;;;;;;;;;17.00;40.20;;;;;;5082311;28;19975;-79
2022/03/29 09:26:30;;;;;;;;;;;17.40;39.70;;;;;;5100422;28;19943;-78
2022/03/29 09:28:56;;;;;;;;;;;17.60;39.70;;;;;;5100168;28;20474;-79
2022/03/29 09:31:22;;;;;;;;;;;17.70;39.40;;;;;;5100453;28;20123;-79
2022/03/29 09:33:48;;;;;;;;;;;17.80;39.10;;;;;;5100382;28;19908;-79
2022/03/29 09:36:20;;;;;;;;;;;17.70;38.50;;;;;;5100384;28;20267;-79
2022/03/29 09:38:47;;;;;;;;;;;17.70;37.50;;;;;;5100193;28;19908;-79
2022/03/29 09:41:30;;;;;;;;;;;17.40;37.60;;;;;;5100326;28;19930;-79
2022/03/29 09:44:02;;;;;;;;;;;17.60;37.70;;;;;;5082238;28;19907;-80
2022/03/29 09:46:28;;;;;;;;;;;17.50;37.80;;;;;;5081545;28;19912;-80
2022/03/29 09:49:00;;;;;;;;;;;17.50;36.20;;;;;;5100044;28;19931;-79
2022/03/29 09:51:27;;;;;;;;;;;16.60;35.90;;;;;;5100425;28;19933;-80
2022/03/29 09:53:55;;;;;;;;;;;17.70;36.30;;;;;;5100123;28;19907;-80
2022/03/29 09:56:24;;;;;;;;;;;17.80;37.10;;;;;;5100137;28;19958;-80
2022/03/29 09:59:06;;;;;;;;;;;18.10;37.10;;;;;;5081916;28;19998;-79
2022/03/29 10:01:34;;;;;;;;;;;18.20;35.70;;;;;;5099767;28;20465;-79
2022/03/29 10:04:00;;;;;;;;;;;18.20;35.90;;;;;;5100401;28;20541;-79
2022/03/29 10:06:26;;;;;;;;;;;18.40;35.90;;;;;;5099806;28;20023;-79
2022/03/29 10:11:43;;;;;;;;;;;18.40;35.40;;;;;;5099940;28;20357;-80
2022/03/29 10:14:12;;;;;;;;;;;18.70;35.20;;;;;;5099955;28;20359;-80
2022/03/29 10:16:38;;;;;;;;;;;19.00;34.30;;;;;;5099485;28;19951;-79
2022/03/29 10:19:04;;;;;;;;;;;18.90;35.20;;;;;;5099696;28;20386;-79
2022/03/29 10:21:30;;;;;;;;;;;18.90;35.20;;;;;;5099265;28;19985;-79
2022/03/29 10:23:56;;;;;;;;;;;18.80;35.50;;;;;;5099675;28;19908;-80
2022/03/29 10:26:24;;;;;;;;;;;19.00;36.20;;;;;;5100380;28;19999;-80
2022/03/29 10:28:51;;;;;;;;;;;19.20;35.80;;;;;;5099935;28;19916;-80
2022/03/29 10:31:41;;;;;;;;;;;19.60;35.90;;;;;;5099235;28;19918;-80
2022/03/29 10:34:21;;;;;;;;;;;19.60;34.70;;;;;;5080890;28;20227;-80
2022/03/29 10:37:05;;;;;;;;;;;17.80;33.60;;;;;;5099013;28;19908;-80
2022/03/29 10:39:44;;;;;;;;;;;19.60;35.00;;;;;;5081689;28;20024;-79
2022/03/29 10:42:23;;;;;;;;;;;19.80;35.30;;;;;;5100048;28;19915;-79
2022/03/29 10:44:58;;;;;;;;;;;19.70;35.00;;;;;;5099449;28;19919;-79
2022/03/29 10:47:28;;;;;;;;;;;19.70;34.70;;;;;;5099207;28;19938;-80
2022/03/29 10:49:53;;;;;;;;;;;19.70;34.20;;;;;;5098999;28;19919;-79
2022/03/29 10:52:22;;;;;;;;;;;20.00;34.60;;;;;;5080458;28;19908;-79
2022/03/29 10:54:49;;;;;;;;;;;20.30;34.40;;;;;;5098461;28;19908;-80
2022/03/29 10:57:25;;;;;;;;;;;20.40;34.10;;;;;;5098401;28;19988;-79
2022/03/29 10:59:58;;;;;;;;;;;20.30;34.30;;;;;;5098586;28;19961;-80
2022/03/29 11:02:24;;;;;;;;;;;20.30;33.90;;;;;;5098759;28;19962;-80
2022/03/29 11:05:06;;;;;;;;;;;20.40;34.30;;;;;;5099100;28;19935;-80
2022/03/29 11:07:34;;;;;;;;;;;20.20;34.20;;;;;;5098641;28;20302;-80
2022/03/29 11:10:07;;;;;;;;;;;20.10;34.10;;;;;;5080278;28;19912;-80
2022/03/29 11:12:37;;;;;;;;;;;20.40;33.80;;;;;;5080550;28;19907;-80
2022/03/29 11:15:22;;;;;;;;;;;20.70;33.20;;;;;;5098991;28;20181;-79
2022/03/29 11:17:48;;;;;;;;;;;20.60;31.40;;;;;;5098594;28;20030;-79
2022/03/29 11:20:34;;;;;;;;;;;20.80;31.00;;;;;;5098660;28;19945;-80
2022/03/29 11:23:00;;;;;;;;;;;20.90;30.40;;;;;;5098283;28;20018;-79
2022/03/29 11:25:26;;;;;;;;;;;21.00;30.30;;;;;;5098773;28;19907;-79
2022/03/29 11:27:52;;;;;;;;;;;21.30;30.50;;;;;;5099258;28;20140;-80
2022/03/29 11:30:18;;;;;;;;;;;21.60;30.50;;;;;;5098985;28;20126;-79
2022/03/29 11:32:47;;;;;;;;;;;22.00;30.10;;;;;;5104400;28;19918;-79
2022/03/29 11:35:15;;;;;;;;;;;22.00;29.60;;;;;;5113537;28;20394;-79
2022/03/29 11:37:43;;;;;;;;;;;21.90;29.00;;;;;;5109675;28;19908;-79
2022/03/29 11:40:10;;;;;;;;;;;21.80;29.00;;;;;;5093911;28;19919;-79
2022/03/29 11:42:42;;;;;;;;;;;21.60;28.70;;;;;;5082278;28;19912;-79
2022/03/29 11:45:08;;;;;;;;;;;21.10;29.20;;;;;;5098581;28;19908;-80
2022/03/29 11:47:33;;;;;;;;;;;21.10;29.50;;;;;;5097902;28;19924;-80
2022/03/29 11:49:59;;;;;;;;;;;21.20;29.80;;;;;;5098857;28;19912;-81
2022/03/29 11:52:32;;;;;;;;;;;21.20;29.90;;;;;;5098543;28;20278;-80
2022/03/29 11:54:57;;;;;;;;;;;21.40;29.80;;;;;;5098446;28;19920;-79
2022/03/29 11:57:24;;;;;;;;;;;21.30;29.80;;;;;;5098191;28;20109;-78
2022/03/29 11:59:51;;;;;;;;;;;21.30;29.80;;;;;;5079799;28;20418;-79
2022/03/29 12:02:22;;;;;;;;;;;21.40;29.80;;;;;;5098133;28;19924;-79
2022/03/29 12:04:49;;;;;;;;;;;21.50;29.60;;;;;;5098140;28;20042;-79
2022/03/29 12:07:15;;;;;;;;;;;21.90;29.30;;;;;;5098148;28;19926;-79
2022/03/29 12:09:47;;;;;;;;;;;21.80;29.30;;;;;;5097894;28;19912;-79
2022/03/29 12:12:13;;;;;;;;;;;21.90;29.20;;;;;;5079579;28;19915;-81
2022/03/29 12:14:38;;;;;;;;;;;22.00;29.20;;;;;;5097848;28;20185;-81
2022/03/29 12:17:04;;;;;;;;;;;22.10;29.40;;;;;;5079561;28;20419;-81
2022/03/29 12:19:31;;;;;;;;;;;22.00;29.30;;;;;;5097940;28;20311;-81
2022/03/29 12:22:04;;;;;;;;;;;22.30;29.20;;;;;;5098046;28;20196;-81
2022/03/29 12:24:31;;;;;;;;;;;22.40;29.30;;;;;;5098149;28;20028;-81
2022/03/29 12:27:01;;;;;;;;;;;22.10;29.50;;;;;;5097937;28;20431;-80
2022/03/29 12:29:27;;;;;;;;;;;22.10;29.40;;;;;;5098037;28;20366;-80
2022/03/29 12:31:53;;;;;;;;;;;22.30;29.40;;;;;;5098181;28;20249;-80
2022/03/29 12:34:21;;;;;;;;;;;22.30;29.40;;;;;;5079683;28;20295;-79
2022/03/29 12:36:51;;;;;;;;;;;22.40;29.40;;;;;;5080625;28;20476;-79
2022/03/29 12:39:16;;;;;;;;;;;22.50;29.50;;;;;;5098715;28;19995;-79
2022/03/29 12:41:48;;;;;;;;;;;22.50;29.50;;;;;;5098046;28;19996;-80
2022/03/29 12:44:29;;;;;;;;;;;22.60;29.50;;;;;;5099410;28;19919;-79
2022/03/29 12:46:54;;;;;;;;;;;22.70;29.60;;;;;;5101744;28;19958;-80
2022/03/29 12:49:21;;;;;;;;;;;22.60;29.80;;;;;;5101991;28;20225;-80
2022/03/29 12:51:52;;;;;;;;;;;22.60;29.80;;;;;;5101797;28;20003;-80
2022/03/29 12:54:17;;;;;;;;;;;22.90;29.90;;;;;;5101614;28;19970;-80
2022/03/29 12:56:44;;;;;;;;;;;22.90;29.60;;;;;;5084055;28;20386;-82
2022/03/29 12:59:28;;;;;;;;;;;22.90;29.80;;;;;;5102273;28;20160;-82
2022/03/29 13:02:20;;;;;;;;;;;23.00;29.60;;;;;;5101235;28;19947;-81
2022/03/29 13:04:50;;;;;;;;;;;23.00;29.90;;;;;;5097094;28;19969;-81
2022/03/29 13:07:39;;;;;;;;;;;22.60;29.80;;;;;;5101341;28;19957;-81
2022/03/29 13:10:10;;;;;;;;;;;22.00;30.20;;;;;;5101545;28;20007;-79
2022/03/29 13:12:51;;;;;;;;;;;22.20;29.90;;;;;;5101557;28;19919;-79
2022/03/29 13:15:35;;;;;;;;;;;22.40;29.90;;;;;;5100996;28;20104;-80
2022/03/29 13:18:01;;;;;;;;;;;23.00;29.50;;;;;;5085235;28;19916;-80
2022/03/29 13:20:27;;;;;;;;;;;23.40;29.10;;;;;;5119747;28;19933;-80
2022/03/29 13:22:52;;;;;;;;;;;23.30;29.50;;;;;;5120383;28;19935;-80
2022/03/29 13:25:31;;;;;;;;;;;22.60;28.80;;;;;;5119768;28;20109;-79
2022/03/29 13:27:57;;;;;;;;;;;22.70;28.70;;;;;;5119982;28;19923;-80
2022/03/29 13:30:22;;;;;;;;;;;22.60;29.50;;;;;;5120583;28;19923;-81
2022/03/29 13:32:52;;;;;;;;;;;23.10;29.70;;;;;;5093186;28;20051;-80
2022/03/29 13:35:21;;;;;;;;;;;23.40;29.70;;;;;;5103550;28;19907;-79
2022/03/29 13:37:46;;;;;;;;;;;23.40;29.60;;;;;;5102999;28;20048;-79
2022/03/29 13:40:12;;;;;;;;;;;23.20;29.90;;;;;;5102919;28;19994;-80
2022/03/29 13:42:38;;;;;;;;;;;23.30;30.10;;;;;;5101788;28;19908;-80
2022/03/29 13:45:03;;;;;;;;;;;22.60;30.30;;;;;;5102580;28;20080;-79
2022/03/29 13:47:29;;;;;;;;;;;22.20;30.90;;;;;;5101870;28;20624;-80
2022/03/29 13:49:55;;;;;;;;;;;21.80;31.50;;;;;;5101821;28;19912;-80
2022/03/29 13:52:22;;;;;;;;;;;21.40;33.00;;;;;;5102024;28;19908;-80
2022/03/29 13:54:47;;;;;;;;;;;21.40;32.60;;;;;;5082595;28;20150;-80
2022/03/29 13:57:13;;;;;;;;;;;22.10;32.00;;;;;;5082352;28;19934;-81
2022/03/29 13:59:39;;;;;;;;;;;22.40;31.20;;;;;;5101212;28;20234;-79
2022/03/29 14:02:05;;;;;;;;;;;22.70;30.80;;;;;;5101109;28;19920;-80
2022/03/29 14:04:31;;;;;;;;;;;23.20;30.60;;;;;;5100799;28;19935;-80
2022/03/29 14:06:57;;;;;;;;;;;23.50;30.10;;;;;;5100587;28;20023;-81
2022/03/29 14:09:23;;;;;;;;;;;23.30;30.00;;;;;;5100666;28;19912;-80
2022/03/29 14:11:48;;;;;;;;;;;23.20;29.90;;;;;;5100551;28;19919;-80
2022/03/29 14:14:16;;;;;;;;;;;23.10;29.80;;;;;;5100140;28;23334;-80
2022/03/29 14:16:41;;;;;;;;;;;22.80;29.60;;;;;;5100257;28;19911;-79
2022/03/29 14:19:08;;;;;;;;;;;22.60;30.00;;;;;;5100744;28;20635;-80
2022/03/29 14:21:34;;;;;;;;;;;22.30;30.20;;;;;;5100648;28;19922;-80
2022/03/29 14:23:59;;;;;;;;;;;22.10;30.30;;;;;;5081519;28;20319;-80
2022/03/29 14:26:26;;;;;;;;;;;22.00;30.90;;;;;;5081216;28;20469;-80
2022/03/29 14:28:51;;;;;;;;;;;21.70;30.70;;;;;;5081713;28;20301;-80
2022/03/29 14:31:17;;;;;;;;;;;21.60;31.30;;;;;;5100158;28;19914;-80
2022/03/29 14:33:42;;;;;;;;;;;21.90;31.10;;;;;;5085679;28;19912;-80
2022/03/29 14:36:08;;;;;;;;;;;22.30;30.80;;;;;;5110937;28;19908;-80